sensor_id;sensor_type;location;lat;lon;timestamp;pressure;altitude;pressure_sealevel;temperature;humidity
21236;BME280;10775;42.678;26.324;2023-12-29T00:01:50;99276.59;;;5.87;96.63
21236;BME280;10775;42.678;26.324;2023-12-29T00:04:15;99270.59;;;5.91;96.42
21236;BME280;10775;42.678;26.324;2023-12-29T00:06:41;99268.09;;;5.99;95.36
21236;BME280;10775;42.678;26.324;2023-12-29T00:09:07;99269.72;;;5.91;94.67
21236;BME280;10775;42.678;26.324;2023-12-29T00:11:33;99266.16;;;5.79;95.47
21236;BME280;10775;42.678;26.324;2023-12-29T00:13:59;99266.06;;;5.65;96.10
21236;BME280;10775;42.678;26.324;2023-12-29T00:16:24;99275.50;;;5.60;96.68
21236;BME280;10775;42.678;26.324;2023-12-29T00:18:49;99277.22;;;5.58;95.98
21236;BME280;10775;42.678;26.324;2023-12-29T00:21:15;99279.00;;;5.62;97.13
21236;BME280;10775;42.678;26.324;2023-12-29T00:23:40;99272.16;;;5.71;96.76
21236;BME280;10775;42.678;26.324;2023-12-29T00:26:06;99278.16;;;5.66;96.08
21236;BME280;10775;42.678;26.324;2023-12-29T00:28:31;99280.78;;;5.70;96.79
21236;BME280;10775;42.678;26.324;2023-12-29T00:30:57;99274.72;;;5.68;96.72
21236;BME280;10775;42.678;26.324;2023-12-29T00:33:22;99272.06;;;5.61;97.10
21236;BME280;10775;42.678;26.324;2023-12-29T00:35:47;99272.00;;;5.55;96.93
21236;BME280;10775;42.678;26.324;2023-12-29T00:38:13;99278.03;;;5.53;96.39
21236;BME280;10775;42.678;26.324;2023-12-29T00:40:38;99275.44;;;5.53;95.70
21236;BME280;10775;42.678;26.324;2023-12-29T00:43:04;99271.97;;;5.54;96.18
21236;BME280;10775;42.678;26.324;2023-12-29T00:45:29;99273.75;;;5.55;97.45
21236;BME280;10775;42.678;26.324;2023-12-29T00:47:58;99271.16;;;5.58;97.32
21236;BME280;10775;42.678;26.324;2023-12-29T00:50:24;99269.50;;;5.63;95.79
21236;BME280;10775;42.678;26.324;2023-12-29T00:52:49;99268.66;;;5.65;96.22
21236;BME280;10775;42.678;26.324;2023-12-29T00:55:15;99261.69;;;5.60;96.39
21236;BME280;10775;42.678;26.324;2023-12-29T00:57:40;99261.59;;;5.52;95.94
21236;BME280;10775;42.678;26.324;2023-12-29T01:00:10;99257.28;;;5.53;96.91
21236;BME280;10775;42.678;26.324;2023-12-29T01:02:36;99256.38;;;5.49;96.13
21236;BME280;10775;42.678;26.324;2023-12-29T01:05:01;99259.88;;;5.53;96.62
21236;BME280;10775;42.678;26.324;2023-12-29T01:07:27;99266.78;;;5.54;96.69
21236;BME280;10775;42.678;26.324;2023-12-29T01:09:52;99254.66;;;5.50;96.47
21236;BME280;10775;42.678;26.324;2023-12-29T01:12:18;99251.16;;;5.46;97.44
21236;BME280;10775;42.678;26.324;2023-12-29T01:14:43;99247.72;;;5.49;97.93
21236;BME280;10775;42.678;26.324;2023-12-29T01:17:08;99255.44;;;5.44;96.43
21236;BME280;10775;42.678;26.324;2023-12-29T01:19:34;99250.28;;;5.42;96.70
21236;BME280;10775;42.678;26.324;2023-12-29T01:21:59;99250.25;;;5.44;96.71
21236;BME280;10775;42.678;26.324;2023-12-29T01:24:25;99250.28;;;5.42;97.03
21236;BME280;10775;42.678;26.324;2023-12-29T01:26:50;99246.84;;;5.47;97.33
21236;BME280;10775;42.678;26.324;2023-12-29T01:29:15;99242.53;;;5.47;96.05
21236;BME280;10775;42.678;26.324;2023-12-29T01:31:41;99238.22;;;5.48;96.35
21236;BME280;10775;42.678;26.324;2023-12-29T01:34:06;99231.28;;;5.48;96.68
21236;BME280;10775;42.678;26.324;2023-12-29T01:36:32;99233.00;;;5.46;97.12
21236;BME280;10775;42.678;26.324;2023-12-29T01:38:57;99231.28;;;5.45;96.29
21236;BME280;10775;42.678;26.324;2023-12-29T01:41:23;99227.78;;;5.43;96.13
21236;BME280;10775;42.678;26.324;2023-12-29T01:46:20;99229.47;;;5.38;96.20
21236;BME280;10775;42.678;26.324;2023-12-29T01:48:45;99220.81;;;5.34;96.44
21236;BME280;10775;42.678;26.324;2023-12-29T01:51:11;99223.38;;;5.33;96.38
21236;BME280;10775;42.678;26.324;2023-12-29T01:53:37;99218.19;;;5.33;96.44
21236;BME280;10775;42.678;26.324;2023-12-29T01:56:02;99221.63;;;5.33;96.75
21236;BME280;10775;42.678;26.324;2023-12-29T01:58:28;99206.94;;;5.32;97.05
21236;BME280;10775;42.678;26.324;2023-12-29T02:00:54;99210.44;;;5.39;97.04
21236;BME280;10775;42.678;26.324;2023-12-29T02:03:19;99203.59;;;5.44;95.23
21236;BME280;10775;42.678;26.324;2023-12-29T02:05:46;99199.28;;;5.43;94.84
21236;BME280;10775;42.678;26.324;2023-12-29T02:08:12;99202.72;;;5.43;94.81
21236;BME280;10775;42.678;26.324;2023-12-29T02:10:37;99195.78;;;5.41;94.46
21236;BME280;10775;42.678;26.324;2023-12-29T02:13:03;99200.09;;;5.39;94.44
21236;BME280;10775;42.678;26.324;2023-12-29T02:15:29;99201.75;;;5.32;93.47
21236;BME280;10775;42.678;26.324;2023-12-29T02:18:02;99202.53;;;5.22;94.53
21236;BME280;10775;42.678;26.324;2023-12-29T02:20:29;99196.38;;;5.12;95.13
21236;BME280;10775;42.678;26.324;2023-12-29T02:22:54;99194.63;;;5.10;96.51
21236;BME280;10775;42.678;26.324;2023-12-29T02:25:20;99194.56;;;5.05;96.30
21236;BME280;10775;42.678;26.324;2023-12-29T02:27:57;99192.03;;;5.11;97.22
21236;BME280;10775;42.678;26.324;2023-12-29T02:30:44;99186.00;;;5.12;96.44
21236;BME280;10775;42.678;26.324;2023-12-29T02:33:14;99178.22;;;5.12;97.45
21236;BME280;10775;42.678;26.324;2023-12-29T02:35:43;99176.47;;;5.10;98.04
21236;BME280;10775;42.678;26.324;2023-12-29T02:38:10;99179.03;;;5.05;97.18
21236;BME280;10775;42.678;26.324;2023-12-29T02:40:36;99176.41;;;5.04;97.42
21236;BME280;10775;42.678;26.324;2023-12-29T02:43:02;99176.41;;;5.02;95.99
21236;BME280;10775;42.678;26.324;2023-12-29T02:45:27;99178.09;;;4.97;96.77
21236;BME280;10775;42.678;26.324;2023-12-29T02:47:53;99172.06;;;5.01;97.83
21236;BME280;10775;42.678;26.324;2023-12-29T02:50:18;99177.25;;;4.99;96.99
21236;BME280;10775;42.678;26.324;2023-12-29T02:52:44;99177.22;;;4.98;96.33
21236;BME280;10775;42.678;26.324;2023-12-29T02:55:09;99178.06;;;4.94;96.81
21236;BME280;10775;42.678;26.324;2023-12-29T02:57:35;99170.16;;;4.85;96.26
21236;BME280;10775;42.678;26.324;2023-12-29T03:00:00;99166.69;;;4.81;96.66
21236;BME280;10775;42.678;26.324;2023-12-29T03:02:26;99162.38;;;4.82;96.90
21236;BME280;10775;42.678;26.324;2023-12-29T03:04:51;99166.69;;;4.81;96.81
21236;BME280;10775;42.678;26.324;2023-12-29T03:07:17;99168.38;;;4.76;96.24
21236;BME280;10775;42.678;26.324;2023-12-29T03:09:42;99170.06;;;4.74;96.05
21236;BME280;10775;42.678;26.324;2023-12-29T03:12:08;99176.09;;;4.74;96.85
21236;BME280;10775;42.678;26.324;2023-12-29T03:14:34;99166.63;;;4.78;97.92
21236;BME280;10775;42.678;26.324;2023-12-29T03:17:00;99171.78;;;4.73;96.52
21236;BME280;10775;42.678;26.324;2023-12-29T03:19:25;99160.56;;;4.74;96.72
21236;BME280;10775;42.678;26.324;2023-12-29T03:21:51;99166.53;;;4.70;97.26
21236;BME280;10775;42.678;26.324;2023-12-29T03:24:19;99160.44;;;4.64;96.67
21236;BME280;10775;42.678;26.324;2023-12-29T03:26:44;99161.25;;;4.58;97.47
21236;BME280;10775;42.678;26.324;2023-12-29T03:29:11;99158.56;;;4.50;97.35
21236;BME280;10775;42.678;26.324;2023-12-29T03:31:36;99165.38;;;4.44;96.99
21236;BME280;10775;42.678;26.324;2023-12-29T03:34:02;99174.84;;;4.40;98.11
21236;BME280;10775;42.678;26.324;2023-12-29T03:36:27;99165.31;;;4.39;97.98
21236;BME280;10775;42.678;26.324;2023-12-29T03:38:53;99167.06;;;4.42;98.51
21236;BME280;10775;42.678;26.324;2023-12-29T03:41:18;99161.00;;;4.38;97.90
21236;BME280;10775;42.678;26.324;2023-12-29T03:43:44;99163.59;;;4.40;98.30
21236;BME280;10775;42.678;26.324;2023-12-29T03:46:20;99173.19;;;4.45;98.79
21236;BME280;10775;42.678;26.324;2023-12-29T03:48:46;99165.34;;;4.41;97.86
21236;BME280;10775;42.678;26.324;2023-12-29T03:51:12;99170.50;;;4.38;98.47
21236;BME280;10775;42.678;26.324;2023-12-29T03:53:38;99164.47;;;4.39;98.32
21236;BME280;10775;42.678;26.324;2023-12-29T03:56:14;99174.75;;;4.32;98.29
21236;BME280;10775;42.678;26.324;2023-12-29T03:58:39;99165.19;;;4.28;99.43
21236;BME280;10775;42.678;26.324;2023-12-29T04:01:09;99159.94;;;4.22;99.07
21236;BME280;10775;42.678;26.324;2023-12-29T04:03:35;99159.91;;;4.21;99.45
21236;BME280;10775;42.678;26.324;2023-12-29T04:06:01;99155.59;;;4.21;99.20
21236;BME280;10775;42.678;26.324;2023-12-29T04:08:27;99158.19;;;4.21;99.74
21236;BME280;10775;42.678;26.324;2023-12-29T04:10:52;99156.44;;;4.19;99.35
21236;BME280;10775;42.678;26.324;2023-12-29T04:13:17;99160.81;;;4.23;99.62
21236;BME280;10775;42.678;26.324;2023-12-29T04:15:43;99154.81;;;4.25;99.48
21236;BME280;10775;42.678;26.324;2023-12-29T04:18:08;99153.03;;;4.24;98.89
21236;BME280;10775;42.678;26.324;2023-12-29T04:20:34;99147.97;;;4.30;98.70
21236;BME280;10775;42.678;26.324;2023-12-29T04:22:59;99155.75;;;4.33;98.50
21236;BME280;10775;42.678;26.324;2023-12-29T04:25:24;99149.69;;;4.31;96.78
21236;BME280;10775;42.678;26.324;2023-12-29T04:27:50;99151.44;;;4.32;97.01
21236;BME280;10775;42.678;26.324;2023-12-29T04:30:15;99156.56;;;4.29;97.41
21236;BME280;10775;42.678;26.324;2023-12-29T04:32:41;99153.09;;;4.27;96.46
21236;BME280;10775;42.678;26.324;2023-12-29T04:35:07;99153.97;;;4.28;96.89
21236;BME280;10775;42.678;26.324;2023-12-29T04:37:32;99153.97;;;4.28;97.49
21236;BME280;10775;42.678;26.324;2023-12-29T04:39:58;99147.94;;;4.27;97.62
21236;BME280;10775;42.678;26.324;2023-12-29T04:42:23;99150.50;;;4.26;97.02
21236;BME280;10775;42.678;26.324;2023-12-29T04:44:48;99148.72;;;4.23;95.61
21236;BME280;10775;42.678;26.324;2023-12-29T04:47:14;99147.03;;;4.25;96.17
21236;BME280;10775;42.678;26.324;2023-12-29T04:49:39;99149.66;;;4.28;96.72
21236;BME280;10775;42.678;26.324;2023-12-29T04:52:05;99141.97;;;4.33;97.06
21236;BME280;10775;42.678;26.324;2023-12-29T04:54:30;99144.53;;;4.34;96.54
21236;BME280;10775;42.678;26.324;2023-12-29T04:56:56;99139.31;;;4.28;95.91
21236;BME280;10775;42.678;26.324;2023-12-29T04:59:21;99129.72;;;4.20;95.48
21236;BME280;10775;42.678;26.324;2023-12-29T05:01:46;99141.75;;;4.18;95.82
21236;BME280;10775;42.678;26.324;2023-12-29T05:04:12;99144.34;;;4.19;95.60
21236;BME280;10775;42.678;26.324;2023-12-29T05:06:40;99152.13;;;4.18;95.68
21236;BME280;10775;42.678;26.324;2023-12-29T05:09:05;99143.41;;;4.14;95.67
21236;BME280;10775;42.678;26.324;2023-12-29T05:11:31;99151.16;;;4.11;95.29
21236;BME280;10775;42.678;26.324;2023-12-29T05:13:57;99147.59;;;4.03;96.20
21236;BME280;10775;42.678;26.324;2023-12-29T05:16:23;99158.78;;;4.00;95.11
21236;BME280;10775;42.678;26.324;2023-12-29T05:18:48;99154.44;;;3.98;95.30
21236;BME280;10775;42.678;26.324;2023-12-29T05:21:17;99157.88;;;3.97;96.91
21236;BME280;10775;42.678;26.324;2023-12-29T05:23:46;99162.16;;;3.96;97.50
21236;BME280;10775;42.678;26.324;2023-12-29T05:26:12;99161.22;;;3.91;96.93
21236;BME280;10775;42.678;26.324;2023-12-29T05:28:38;99159.50;;;3.90;97.43
21236;BME280;10775;42.678;26.324;2023-12-29T05:31:03;99159.38;;;3.82;96.90
21236;BME280;10775;42.678;26.324;2023-12-29T05:33:30;99165.38;;;3.80;97.68
21236;BME280;10775;42.678;26.324;2023-12-29T05:35:56;99166.25;;;3.79;97.77
21236;BME280;10775;42.678;26.324;2023-12-29T05:38:21;99166.22;;;3.77;97.34
21236;BME280;10775;42.678;26.324;2023-12-29T05:40:47;99168.03;;;3.84;98.43
21236;BME280;10775;42.678;26.324;2023-12-29T05:43:12;99163.81;;;3.91;99.44
21236;BME280;10775;42.678;26.324;2023-12-29T05:45:38;99160.28;;;3.84;97.27
21236;BME280;10775;42.678;26.324;2023-12-29T05:48:03;99155.94;;;3.83;97.89
21236;BME280;10775;42.678;26.324;2023-12-29T05:50:29;99167.97;;;3.80;97.98
21236;BME280;10775;42.678;26.324;2023-12-29T05:52:54;99162.72;;;3.75;97.96
21236;BME280;10775;42.678;26.324;2023-12-29T05:55:20;99167.94;;;3.78;98.61
21236;BME280;10775;42.678;26.324;2023-12-29T05:57:45;99165.38;;;3.80;98.64
21236;BME280;10775;42.678;26.324;2023-12-29T06:00:11;99169.69;;;3.79;98.55
21236;BME280;10775;42.678;26.324;2023-12-29T06:02:43;99167.19;;;3.84;98.82
21236;BME280;10775;42.678;26.324;2023-12-29T06:05:11;99167.25;;;3.90;99.34
21236;BME280;10775;42.678;26.324;2023-12-29T06:07:37;99162.09;;;3.90;99.20
21236;BME280;10775;42.678;26.324;2023-12-29T06:10:03;99157.78;;;3.90;98.64
21236;BME280;10775;42.678;26.324;2023-12-29T06:12:29;99157.00;;;3.98;99.36
21236;BME280;10775;42.678;26.324;2023-12-29T06:14:54;99163.84;;;3.92;97.24
21236;BME280;10775;42.678;26.324;2023-12-29T06:17:20;99168.13;;;3.90;98.23
21236;BME280;10775;42.678;26.324;2023-12-29T06:19:45;99166.47;;;3.94;98.11
21236;BME280;10775;42.678;26.324;2023-12-29T06:22:10;99161.31;;;3.99;97.64
21236;BME280;10775;42.678;26.324;2023-12-29T06:24:42;99155.28;;;3.98;95.36
21236;BME280;10775;42.678;26.324;2023-12-29T06:27:08;99151.13;;;4.08;96.94
21236;BME280;10775;42.678;26.324;2023-12-29T06:29:35;99157.25;;;4.14;96.71
21236;BME280;10775;42.678;26.324;2023-12-29T06:32:00;99155.59;;;4.20;95.58
21236;BME280;10775;42.678;26.324;2023-12-29T06:34:26;99154.91;;;4.34;96.29
21236;BME280;10775;42.678;26.324;2023-12-29T06:36:51;99151.63;;;4.48;95.66
21236;BME280;10775;42.678;26.324;2023-12-29T06:39:17;99152.53;;;4.51;92.83
21236;BME280;10775;42.678;26.324;2023-12-29T06:41:42;99157.78;;;4.57;94.61
21236;BME280;10775;42.678;26.324;2023-12-29T06:44:08;99160.34;;;4.57;93.31
21236;BME280;10775;42.678;26.324;2023-12-29T06:46:33;99154.31;;;4.57;92.78
21236;BME280;10775;42.678;26.324;2023-12-29T06:48:58;99163.00;;;4.62;92.34
21236;BME280;10775;42.678;26.324;2023-12-29T06:51:24;99163.00;;;4.61;91.13
21236;BME280;10775;42.678;26.324;2023-12-29T06:53:50;99163.09;;;4.70;92.99
21236;BME280;10775;42.678;26.324;2023-12-29T06:56:16;99168.34;;;4.74;91.83
21236;BME280;10775;42.678;26.324;2023-12-29T06:58:43;99167.53;;;4.78;92.35
21236;BME280;10775;42.678;26.324;2023-12-29T07:01:08;99167.56;;;4.82;90.23
21236;BME280;10775;42.678;26.324;2023-12-29T07:03:34;99167.59;;;4.88;91.28
21236;BME280;10775;42.678;26.324;2023-12-29T07:06:02;99164.22;;;4.92;89.91
21236;BME280;10775;42.678;26.324;2023-12-29T07:08:28;99165.13;;;4.97;88.72
21236;BME280;10775;42.678;26.324;2023-12-29T07:10:54;99169.53;;;5.04;91.10
21236;BME280;10775;42.678;26.324;2023-12-29T07:13:19;99172.13;;;5.04;88.59
21236;BME280;10775;42.678;26.324;2023-12-29T07:15:48;99176.47;;;5.08;88.87
21236;BME280;10775;42.678;26.324;2023-12-29T07:18:14;99176.59;;;5.22;90.03
21236;BME280;10775;42.678;26.324;2023-12-29T07:20:40;99164.56;;;5.29;90.16
21236;BME280;10775;42.678;26.324;2023-12-29T07:23:05;99161.16;;;5.34;88.51
21236;BME280;10775;42.678;26.324;2023-12-29T07:25:31;99159.47;;;5.38;88.85
21236;BME280;10775;42.678;26.324;2023-12-29T07:27:56;99166.44;;;5.47;89.28
21236;BME280;10775;42.678;26.324;2023-12-29T07:30:22;99171.72;;;5.57;86.20
21236;BME280;10775;42.678;26.324;2023-12-29T07:32:47;99163.13;;;5.64;88.45
21236;BME280;10775;42.678;26.324;2023-12-29T07:35:13;99164.06;;;5.73;88.01
21236;BME280;10775;42.678;26.324;2023-12-29T07:37:43;99170.16;;;5.78;87.22
21236;BME280;10775;42.678;26.324;2023-12-29T07:40:10;99165.00;;;5.84;87.77
21236;BME280;10775;42.678;26.324;2023-12-29T07:42:36;99168.53;;;5.95;86.77
21236;BME280;10775;42.678;26.324;2023-12-29T07:45:01;99169.50;;;6.06;87.19
21236;BME280;10775;42.678;26.324;2023-12-29T07:47:27;99170.41;;;6.12;86.92
21236;BME280;10775;42.678;26.324;2023-12-29T07:49:52;99167.84;;;6.19;86.25
21236;BME280;10775;42.678;26.324;2023-12-29T07:52:18;99172.22;;;6.29;85.85
21236;BME280;10775;42.678;26.324;2023-12-29T07:54:43;99175.69;;;6.36;85.13
21236;BME280;10775;42.678;26.324;2023-12-29T07:57:08;99174.84;;;6.37;84.04
21236;BME280;10775;42.678;26.324;2023-12-29T07:59:35;99172.28;;;6.43;86.16
21236;BME280;10775;42.678;26.324;2023-12-29T08:02:00;99172.28;;;6.46;84.93
21236;BME280;10775;42.678;26.324;2023-12-29T08:04:25;99174.97;;;6.63;85.71
21236;BME280;10775;42.678;26.324;2023-12-29T08:06:51;99181.09;;;6.87;86.23
21236;BME280;10775;42.678;26.324;2023-12-29T08:09:16;99175.06;;;7.08;84.20
21236;BME280;10775;42.678;26.324;2023-12-29T08:11:42;99175.97;;;7.87;83.92
21236;BME280;10775;42.678;26.324;2023-12-29T08:14:08;99180.28;;;8.09;79.57
21236;BME280;10775;42.678;26.324;2023-12-29T08:16:40;99184.66;;;7.98;78.22
21236;BME280;10775;42.678;26.324;2023-12-29T08:19:06;99182.91;;;7.97;77.38
21236;BME280;10775;42.678;26.324;2023-12-29T08:21:32;99181.78;;;8.84;82.20
21236;BME280;10775;42.678;26.324;2023-12-29T08:23:58;99188.91;;;9.88;79.20
21236;BME280;10775;42.678;26.324;2023-12-29T08:26:23;99185.72;;;10.48;76.85
21236;BME280;10775;42.678;26.324;2023-12-29T08:28:49;99187.97;;;10.79;75.94
21236;BME280;10775;42.678;26.324;2023-12-29T08:31:15;99179.47;;;10.60;73.02
21236;BME280;10775;42.678;26.324;2023-12-29T08:33:41;99182.97;;;10.59;74.18
21236;BME280;10775;42.678;26.324;2023-12-29T08:36:07;99179.78;;;10.32;72.92
21236;BME280;10775;42.678;26.324;2023-12-29T08:38:32;99179.47;;;10.60;74.07
21236;BME280;10775;42.678;26.324;2023-12-29T08:40:59;99183.44;;;10.92;73.32
21236;BME280;10775;42.678;26.324;2023-12-29T08:43:24;99172.59;;;11.16;72.81
21236;BME280;10775;42.678;26.324;2023-12-29T08:45:50;99179.47;;;11.25;70.00
21236;BME280;10775;42.678;26.324;2023-12-29T08:48:15;99180.78;;;10.93;70.96
21236;BME280;10775;42.678;26.324;2023-12-29T08:50:41;99184.13;;;11.03;71.99
21236;BME280;10775;42.678;26.324;2023-12-29T08:53:08;99183.34;;;10.98;72.64
21236;BME280;10775;42.678;26.324;2023-12-29T08:55:34;99180.13;;;10.77;71.67
21236;BME280;10775;42.678;26.324;2023-12-29T08:57:59;99181.44;;;10.41;72.21
21236;BME280;10775;42.678;26.324;2023-12-29T09:00:25;99189.63;;;10.84;74.31
21236;BME280;10775;42.678;26.324;2023-12-29T09:02:50;99179.13;;;10.87;72.26
21236;BME280;10775;42.678;26.324;2023-12-29T09:05:16;99181.69;;;10.92;70.91
21236;BME280;10775;42.678;26.324;2023-12-29T09:07:41;99184.25;;;10.97;70.26
21236;BME280;10775;42.678;26.324;2023-12-29T09:10:07;99186.59;;;11.15;68.95
21236;BME280;10775;42.678;26.324;2023-12-29T09:12:36;99177.41;;;11.45;68.08
21236;BME280;10775;42.678;26.324;2023-12-29T09:15:01;99167.38;;;11.70;67.95
21236;BME280;10775;42.678;26.324;2023-12-29T09:17:27;99167.19;;;11.83;67.04
21236;BME280;10775;42.678;26.324;2023-12-29T09:19:53;99162.16;;;11.70;66.58
21236;BME280;10775;42.678;26.324;2023-12-29T09:22:19;99166.38;;;11.79;66.70
21236;BME280;10775;42.678;26.324;2023-12-29T09:24:44;99169.31;;;11.61;66.19
21236;BME280;10775;42.678;26.324;2023-12-29T09:27:10;99160.94;;;11.39;65.68
21236;BME280;10775;42.678;26.324;2023-12-29T09:29:36;99160.88;;;11.43;65.57
21236;BME280;10775;42.678;26.324;2023-12-29T09:32:02;99160.56;;;11.60;65.40
21236;BME280;10775;42.678;26.324;2023-12-29T09:34:27;99153.13;;;11.90;64.61
21236;BME280;10775;42.678;26.324;2023-12-29T09:36:53;99158.88;;;12.10;64.93
21236;BME280;10775;42.678;26.324;2023-12-29T09:39:18;99153.06;;;11.94;64.58
21236;BME280;10775;42.678;26.324;2023-12-29T09:41:46;99152.19;;;11.94;64.85
21236;BME280;10775;42.678;26.324;2023-12-29T09:44:15;99144.34;;;11.92;65.74
21236;BME280;10775;42.678;26.324;2023-12-29T09:46:42;99146.28;;;11.80;66.18
21236;BME280;10775;42.678;26.324;2023-12-29T09:49:08;99145.56;;;11.70;66.51
21236;BME280;10775;42.678;26.324;2023-12-29T09:51:39;99136.91;;;12.16;67.24
21236;BME280;10775;42.678;26.324;2023-12-29T09:54:06;99133.41;;;12.17;65.62
21236;BME280;10775;42.678;26.324;2023-12-29T09:56:33;99133.72;;;12.02;65.78
21236;BME280;10775;42.678;26.324;2023-12-29T09:58:59;99130.59;;;12.28;66.25
21236;BME280;10775;42.678;26.324;2023-12-29T10:01:25;99127.41;;;12.55;65.68
21236;BME280;10775;42.678;26.324;2023-12-29T10:03:54;99121.84;;;12.71;63.98
21236;BME280;10775;42.678;26.324;2023-12-29T10:06:24;99122.03;;;12.61;62.98
21236;BME280;10775;42.678;26.324;2023-12-29T10:08:50;99115.16;;;12.54;64.02
21236;BME280;10775;42.678;26.324;2023-12-29T10:11:18;99119.66;;;12.49;64.24
21236;BME280;10775;42.678;26.324;2023-12-29T10:13:46;99103.69;;;12.16;64.78
21236;BME280;10775;42.678;26.324;2023-12-29T10:16:26;99106.75;;;11.93;65.34
21236;BME280;10775;42.678;26.324;2023-12-29T10:19:02;99103.22;;;11.96;66.34
21236;BME280;10775;42.678;26.324;2023-12-29T10:21:35;99103.13;;;12.46;65.74
21236;BME280;10775;42.678;26.324;2023-12-29T10:24:17;99099.03;;;12.73;65.32
21236;BME280;10775;42.678;26.324;2023-12-29T10:26:44;99096.41;;;12.73;64.84
21236;BME280;10775;42.678;26.324;2023-12-29T10:29:11;99102.91;;;12.11;65.73
21236;BME280;10775;42.678;26.324;2023-12-29T10:31:37;99091.88;;;11.97;66.89
21236;BME280;10775;42.678;26.324;2023-12-29T10:34:25;99085.34;;;12.16;66.77
21236;BME280;10775;42.678;26.324;2023-12-29T10:37:00;99082.50;;;11.82;67.51
21236;BME280;10775;42.678;26.324;2023-12-29T10:39:32;99086.88;;;11.82;67.47
21236;BME280;10775;42.678;26.324;2023-12-29T10:44:31;99086.38;;;12.09;68.21
21236;BME280;10775;42.678;26.324;2023-12-29T10:46:56;99075.56;;;12.26;66.99
21236;BME280;10775;42.678;26.324;2023-12-29T10:49:22;99078.16;;;12.28;67.25
21236;BME280;10775;42.678;26.324;2023-12-29T10:51:47;99073.31;;;12.50;67.13
21236;BME280;10775;42.678;26.324;2023-12-29T10:54:20;99073.22;;;12.54;67.12
21236;BME280;10775;42.678;26.324;2023-12-29T10:57:01;99073.03;;;12.64;66.16
21236;BME280;10775;42.678;26.324;2023-12-29T10:59:30;99073.13;;;12.57;66.65
21236;BME280;10775;42.678;26.324;2023-12-29T11:01:56;99061.84;;;12.55;66.30
21236;BME280;10775;42.678;26.324;2023-12-29T11:04:22;99062.66;;;12.17;66.81
21236;BME280;10775;42.678;26.324;2023-12-29T11:06:48;99062.69;;;12.14;67.79
21236;BME280;10775;42.678;26.324;2023-12-29T11:09:29;99052.69;;;12.33;66.52
21236;BME280;10775;42.678;26.324;2023-12-29T11:12:00;99059.97;;;12.20;66.95
21236;BME280;10775;42.678;26.324;2023-12-29T11:14:26;99059.34;;;12.07;66.88
21236;BME280;10775;42.678;26.324;2023-12-29T11:16:54;99045.78;;;11.87;68.01
21236;BME280;10775;42.678;26.324;2023-12-29T11:19:20;99051.78;;;11.92;67.44
21236;BME280;10775;42.678;26.324;2023-12-29T11:21:46;99047.09;;;12.08;68.33
21236;BME280;10775;42.678;26.324;2023-12-29T11:24:13;99044.16;;;12.25;66.62
21236;BME280;10775;42.678;26.324;2023-12-29T11:26:39;99040.31;;;12.39;66.93
21236;BME280;10775;42.678;26.324;2023-12-29T11:29:08;99038.22;;;12.55;66.21
21236;BME280;10775;42.678;26.324;2023-12-29T11:31:33;99039.00;;;12.60;65.90
21236;BME280;10775;42.678;26.324;2023-12-29T11:34:06;99036.38;;;12.60;65.62
21236;BME280;10775;42.678;26.324;2023-12-29T11:36:40;99034.63;;;12.59;65.94
21236;BME280;10775;42.678;26.324;2023-12-29T11:39:24;99036.88;;;12.37;66.49
21236;BME280;10775;42.678;26.324;2023-12-29T11:42:26;99030.72;;;12.38;66.27
21236;BME280;10775;42.678;26.324;2023-12-29T11:44:54;99026.00;;;12.54;66.68
21236;BME280;10775;42.678;26.324;2023-12-29T11:47:38;99031.06;;;12.64;66.07
21236;BME280;10775;42.678;26.324;2023-12-29T11:50:05;99027.66;;;12.58;66.28
21236;BME280;10775;42.678;26.324;2023-12-29T11:52:40;99023.94;;;12.28;66.67
21236;BME280;10775;42.678;26.324;2023-12-29T11:55:14;99029.44;;;12.17;67.16
21236;BME280;10775;42.678;26.324;2023-12-29T11:57:40;99021.63;;;12.14;67.23
21236;BME280;10775;42.678;26.324;2023-12-29T12:00:07;99016.84;;;12.35;67.47
21236;BME280;10775;42.678;26.324;2023-12-29T12:02:33;99014.50;;;12.60;66.94
21236;BME280;10775;42.678;26.324;2023-12-29T12:04:58;99021.75;;;12.49;66.07
21236;BME280;10775;42.678;26.324;2023-12-29T12:10:28;99010.34;;;12.51;66.57
21236;BME280;10775;42.678;26.324;2023-12-29T12:12:58;99012.88;;;12.54;66.78
21236;BME280;10775;42.678;26.324;2023-12-29T12:18:06;98996.88;;;12.67;66.45
21236;BME280;10775;42.678;26.324;2023-12-29T12:20:33;98990.44;;;12.80;66.49
21236;BME280;10775;42.678;26.324;2023-12-29T12:25:31;98984.88;;;12.92;66.29
21236;BME280;10775;42.678;26.324;2023-12-29T12:28:01;98983.94;;;12.96;65.53
21236;BME280;10775;42.678;26.324;2023-12-29T12:30:30;98988.53;;;12.87;66.04
21236;BME280;10775;42.678;26.324;2023-12-29T12:33:03;98987.53;;;12.91;65.85
21236;BME280;10775;42.678;26.324;2023-12-29T12:35:29;98989.19;;;12.96;65.82
21236;BME280;10775;42.678;26.324;2023-12-29T12:38:14;98988.09;;;13.03;65.47
21236;BME280;10775;42.678;26.324;2023-12-29T12:40:41;98981.97;;;13.04;65.43
21236;BME280;10775;42.678;26.324;2023-12-29T12:43:07;98986.09;;;13.13;65.54
21236;BME280;10775;42.678;26.324;2023-12-29T12:45:35;98982.63;;;13.13;65.18
21236;BME280;10775;42.678;26.324;2023-12-29T12:48:13;98985.34;;;13.10;64.69
21236;BME280;10775;42.678;26.324;2023-12-29T12:50:46;98984.69;;;13.01;64.98
21236;BME280;10775;42.678;26.324;2023-12-29T12:53:13;98989.13;;;12.98;65.19
21236;BME280;10775;42.678;26.324;2023-12-29T12:55:47;98988.25;;;12.97;65.41
21236;BME280;10775;42.678;26.324;2023-12-29T12:58:13;98991.00;;;12.93;65.73
21236;BME280;10775;42.678;26.324;2023-12-29T13:00:40;98991.00;;;12.93;65.94
21236;BME280;10775;42.678;26.324;2023-12-29T13:03:07;98991.91;;;12.92;65.94
21236;BME280;10775;42.678;26.324;2023-12-29T13:05:33;98997.19;;;12.90;66.10
21236;BME280;10775;42.678;26.324;2023-12-29T13:07:58;99003.47;;;12.83;65.98
21236;BME280;10775;42.678;26.324;2023-12-29T13:10:24;99002.94;;;12.69;66.76